Time;durP1;ratioP1;P1;durP2;ratioP2;P2;SDS_P1;SDS_P2;PMS_P1;PMS_P2;Temp;Humidity;BMP_temperature;BMP_pressure;BME280_temperature;BME280_humidity;BME280_pressure;Samples;Min_cycle;Max_cycle;Signal;HPM_P1;HPM_P2
2022/04/24 00:01:43;;;;;;;6.58;3.30;;;;;;;10.96;66.18;100671.30;1904906;74;21043;-69
2022/04/24 00:04:12;;;;;;;5.87;3.42;;;;;;;10.95;66.06;100674.37;1883761;74;21059;-64
2022/04/24 00:06:41;;;;;;;4.87;2.98;;;;;;;10.96;66.02;100679.20;1872778;77;21103;-67
2022/04/24 00:09:10;;;;;;;8.45;3.37;;;;;;;10.95;65.98;100684.91;1872740;77;21579;-66
2022/04/24 00:11:38;;;;;;;5.08;3.27;;;;;;;10.95;65.93;100682.27;1873086;75;21297;-66
2022/04/24 00:14:10;;;;;;;8.95;4.00;;;;;;;10.95;65.89;100673.52;1868668;77;21110;-66
2022/04/24 00:16:38;;;;;;;7.92;4.33;;;;;;;10.95;65.91;100685.38;1904592;74;21024;-68
2022/04/24 00:19:08;;;;;;;10.28;4.22;;;;;;;10.97;65.93;100687.48;1866851;77;21535;-68
2022/04/24 00:21:36;;;;;;;17.45;4.33;;;;;;;10.98;65.86;100691.84;1903436;75;21511;-68
2022/04/24 00:24:06;;;;;;;17.50;6.03;;;;;;;10.97;65.83;100681.78;1905156;75;21032;-66
2022/04/24 00:26:35;;;;;;;7.17;4.25;;;;;;;10.99;65.84;100672.47;1903346;75;20990;-67
2022/04/24 00:29:04;;;;;;;31.20;4.78;;;;;;;10.98;65.80;100676.03;1905246;75;21025;-71
2022/04/24 00:31:33;;;;;;;20.80;4.58;;;;;;;10.98;65.79;100670.77;1904252;75;20988;-67
2022/04/24 00:34:02;;;;;;;10.53;6.17;;;;;;;10.97;65.75;100661.14;1894099;75;20999;-70
2022/04/24 00:36:30;;;;;;;15.15;8.25;;;;;;;10.97;65.78;100649.28;1872689;77;21058;-73
2022/04/24 00:38:59;;;;;;;17.20;8.23;;;;;;;10.96;65.86;100637.05;1872514;75;21031;-71
2022/04/24 00:41:28;;;;;;;17.42;6.25;;;;;;;10.96;65.83;100646.27;1872947;76;21450;-71
2022/04/24 00:43:56;;;;;;;14.90;5.47;;;;;;;10.95;65.85;100664.30;1872685;77;21450;-71
2022/04/24 00:46:41;;;;;;;11.03;4.70;;;;;;;10.94;65.79;100660.81;1872517;75;21486;-70
2022/04/24 00:49:12;;;;;;;9.83;4.30;;;;;;;10.94;65.76;100658.66;1872626;77;21456;-71
2022/04/24 00:51:46;;;;;;;14.60;4.22;;;;;;;10.93;65.77;100663.05;1893145;75;21068;-64
2022/04/24 00:54:13;;;;;;;8.63;4.20;;;;;;;10.93;65.79;100672.27;1902542;74;21012;-64
2022/04/24 00:56:43;;;;;;;8.03;4.37;;;;;;;10.92;65.74;100659.15;1889979;75;21415;-64
2022/04/24 00:59:14;;;;;;;7.85;4.08;;;;;;;10.90;65.75;100661.88;1872747;77;21047;-66
2022/04/24 01:01:44;;;;;;;8.15;4.30;;;;;;;10.90;65.99;100680.75;1872834;75;21028;-71
2022/04/24 01:04:13;;;;;;;7.53;3.42;;;;;;;10.90;65.94;100678.12;1877746;75;21166;-64
2022/04/24 01:06:43;;;;;;;8.53;4.25;;;;;;;10.90;65.92;100695.23;1891623;76;21060;-64
2022/04/24 01:09:20;;;;;;;7.95;4.08;;;;;;;10.89;65.91;100685.17;1903287;74;21091;-66
2022/04/24 01:11:54;;;;;;;8.85;4.40;;;;;;;10.88;65.91;100681.28;1881228;76;21036;-66
2022/04/24 01:14:31;;;;;;;6.67;4.45;;;;;;;10.88;66.08;100687.42;1859825;77;21118;-66
2022/04/24 01:16:59;;;;;;;7.95;4.60;;;;;;;10.88;66.12;100672.06;1873322;76;21089;-64
2022/04/24 01:19:28;;;;;;;7.78;4.30;;;;;;;10.87;66.07;100665.09;1891768;76;21007;-66
2022/04/24 01:21:58;;;;;;;11.38;3.85;;;;;;;10.82;66.12;100659.53;1879556;76;21121;-65
2022/04/24 01:24:29;;;;;;;7.53;3.85;;;;;;;10.81;66.14;100661.78;1859938;76;21495;-64
2022/04/24 01:26:58;;;;;;;8.75;4.95;;;;;;;10.79;66.53;100662.31;1863134;76;21029;-64
2022/04/24 01:29:27;;;;;;;7.33;3.70;;;;;;;10.77;66.48;100651.42;1859936;77;21037;-63
2022/04/24 01:31:56;;;;;;;13.18;4.83;;;;;;;10.75;66.45;100662.05;1863342;76;21040;-64
2022/04/24 01:34:24;;;;;;;9.70;4.70;;;;;;;10.72;66.39;100656.89;1875963;76;21122;-64
2022/04/24 01:36:53;;;;;;;9.15;4.35;;;;;;;10.71;66.37;100657.80;1873756;76;21023;-63
2022/04/24 01:39:21;;;;;;;7.37;4.17;;;;;;;10.68;66.36;100659.27;1891614;76;21035;-64
2022/04/24 01:41:51;;;;;;;6.10;3.83;;;;;;;10.65;66.38;100664.65;1880722;76;21036;-65
2022/04/24 01:44:20;;;;;;;11.12;4.80;;;;;;;10.61;66.42;100657.80;1859862;77;21100;-65
2022/04/24 01:46:49;;;;;;;8.50;4.20;;;;;;;10.58;66.44;100661.86;1867394;76;21045;-62
2022/04/24 01:49:18;;;;;;;8.55;3.77;;;;;;;10.55;66.52;100661.53;1891578;76;21008;-62
2022/04/24 01:51:48;;;;;;;10.18;4.67;;;;;;;10.53;66.54;100663.81;1889340;76;21458;-62
2022/04/24 01:54:17;;;;;;;8.05;4.78;;;;;;;10.49;66.60;100659.12;1891811;76;21180;-61
2022/04/24 01:56:46;;;;;;;8.73;4.55;;;;;;;10.46;66.63;100655.33;1876416;76;21076;-61
2022/04/24 01:59:14;;;;;;;8.55;4.58;;;;;;;10.41;66.74;100648.06;1859860;76;21048;-62
2022/04/24 02:01:43;;;;;;;11.00;4.12;;;;;;;10.40;67.13;100648.53;1859910;77;21037;-61
2022/04/24 02:04:12;;;;;;;13.28;4.33;;;;;;;10.39;67.84;100650.75;1875886;76;21078;-61
2022/04/24 02:06:40;;;;;;;8.08;4.12;;;;;;;10.38;67.67;100661.33;1858970;75;21078;-62
2022/04/24 02:09:09;;;;;;;9.70;5.15;;;;;;;10.35;67.70;100663.64;1841613;78;21057;-61
2022/04/24 02:11:38;;;;;;;10.10;4.83;;;;;;;10.32;68.42;100658.48;1854850;77;21044;-62
2022/04/24 02:14:07;;;;;;;9.73;5.00;;;;;;;10.30;68.28;100657.66;1872736;76;21491;-62
2022/04/24 02:16:35;;;;;;;8.23;3.37;;;;;;;10.28;68.08;100667.39;1872707;76;21047;-61
2022/04/24 02:19:04;;;;;;;6.85;3.80;;;;;;;10.23;67.98;100661.44;1872625;77;21036;-62
2022/04/24 02:21:33;;;;;;;5.50;2.77;;;;;;;10.19;67.99;100665.12;1872819;77;21141;-60
2022/04/24 02:24:01;;;;;;;7.08;4.30;;;;;;;10.15;68.05;100668.80;1872752;76;21087;-62
2022/04/24 02:26:30;;;;;;;7.50;4.42;;;;;;;10.10;68.00;100665.47;1904615;70;21141;-63
2022/04/24 02:28:59;;;;;;;9.10;4.75;;;;;;;10.05;68.06;100663.00;1923265;74;21549;-63
2022/04/24 02:31:27;;;;;;;10.25;4.55;;;;;;;10.02;68.50;100663.98;1889304;76;21062;-63
2022/04/24 02:33:56;;;;;;;8.65;5.58;;;;;;;10.01;69.27;100672.81;1890766;76;21018;-64
2022/04/24 02:36:25;;;;;;;21.40;5.87;;;;;;;10.01;68.98;100672.81;1923731;74;21042;-63
2022/04/24 02:38:53;;;;;;;7.22;4.30;;;;;;;10.01;68.98;100673.25;1923634;74;21042;-62
2022/04/24 02:41:22;;;;;;;7.62;5.00;;;;;;;10.01;69.04;100672.81;1923654;74;21023;-64
2022/04/24 02:43:50;;;;;;;7.28;4.70;;;;;;;10.02;69.12;100674.51;1924468;74;21066;-62
2022/04/24 02:46:19;;;;;;;6.87;3.50;;;;;;;10.03;68.95;100681.94;1927410;74;21039;-62
2022/04/24 02:48:48;;;;;;;8.33;4.15;;;;;;;10.04;68.90;100683.20;1927604;74;21124;-62
2022/04/24 02:51:17;;;;;;;6.60;4.58;;;;;;;10.05;68.89;100690.19;1927522;74;21050;-63
2022/04/24 02:53:46;;;;;;;10.98;3.95;;;;;;;10.08;68.79;100693.61;1927549;74;21534;-63
2022/04/24 02:56:14;;;;;;;6.53;4.42;;;;;;;10.10;68.71;100699.67;1927470;74;21050;-63
2022/04/24 02:58:44;;;;;;;9.28;4.42;;;;;;;10.13;68.73;100696.94;1927392;74;21501;-63
2022/04/24 03:01:13;;;;;;;6.28;3.17;;;;;;;10.14;69.14;100696.00;1927425;74;21567;-63
2022/04/24 03:03:42;;;;;;;7.95;4.37;;;;;;;10.16;68.94;100704.69;1927611;74;21015;-63
2022/04/24 03:06:11;;;;;;;9.53;4.05;;;;;;;10.15;68.86;100715.69;1927490;74;21081;-63
2022/04/24 03:08:40;;;;;;;10.98;3.92;;;;;;;10.15;68.82;100705.63;1927427;74;21059;-63
2022/04/24 03:11:09;;;;;;;7.97;3.90;;;;;;;10.16;68.79;100712.59;1927348;74;21034;-63
2022/04/24 03:13:37;;;;;;;5.12;3.65;;;;;;;10.14;68.83;100719.69;1927541;74;21035;-63
2022/04/24 03:16:06;;;;;;;8.58;5.67;;;;;;;10.14;68.76;100726.27;1927563;74;21042;-63
2022/04/24 03:18:35;;;;;;;24.25;8.55;;;;;;;10.13;68.83;100723.25;1927387;74;21021;-62
2022/04/24 03:21:04;;;;;;;36.50;13.65;;;;;;;10.14;69.42;100726.27;1910522;74;21006;-62
2022/04/24 03:23:32;;;;;;;31.80;13.53;;;;;;;10.13;69.49;100729.83;1894201;76;21055;-64
2022/04/24 03:26:02;;;;;;;17.45;6.92;;;;;;;10.13;69.27;100708.78;1894019;74;21110;-61
2022/04/24 03:28:30;;;;;;;19.75;8.43;;;;;;;10.12;69.26;100696.06;1960293;73;21048;-62
2022/04/24 03:30:59;;;;;;;34.10;14.45;;;;;;;10.13;69.21;100699.57;1960211;73;21076;-62
2022/04/24 03:33:28;;;;;;;25.60;9.95;;;;;;;10.17;69.16;100707.73;1960244;73;21033;-61
2022/04/24 03:35:56;;;;;;;26.93;11.45;;;;;;;10.17;69.09;100706.42;1960198;73;21020;-62
2022/04/24 03:38:25;;;;;;;20.23;10.28;;;;;;;10.17;69.03;100701.16;1960185;73;21102;-61
2022/04/24 03:40:53;;;;;;;31.85;10.72;;;;;;;10.17;68.98;100695.90;1960188;73;21105;-62
2022/04/24 03:43:23;;;;;;;24.92;11.05;;;;;;;10.16;68.93;100698.11;1960236;73;21142;-62
2022/04/24 03:45:52;;;;;;;28.27;14.60;;;;;;;10.15;68.94;100709.11;1960358;73;21563;-63
2022/04/24 03:48:21;;;;;;;39.45;15.85;;;;;;;10.12;69.17;100709.68;1960351;73;21458;-61
2022/04/24 03:50:50;;;;;;;48.15;12.95;;;;;;;10.10;69.21;100717.63;1960080;73;21051;-62
2022/04/24 03:53:18;;;;;;;37.70;13.38;;;;;;;10.08;69.80;100722.55;1960208;73;21111;-62
2022/04/24 03:55:47;;;;;;;39.35;15.10;;;;;;;10.09;69.71;100726.88;1960129;73;21064;-62
2022/04/24 03:58:16;;;;;;;42.15;17.37;;;;;;;10.14;69.71;100727.58;1960149;73;21064;-62
2022/04/24 04:00:45;;;;;;;48.45;20.88;;;;;;;10.26;69.57;100728.91;1960216;73;21036;-62
2022/04/24 04:03:14;;;;;;;55.45;20.50;;;;;;;10.45;69.67;100728.62;1960037;73;21150;-63
2022/04/24 04:05:42;;;;;;;120.45;44.18;;;;;;;10.69;69.91;100721.53;1960171;73;21108;-62
2022/04/24 04:08:11;;;;;;;101.45;32.93;;;;;;;11.16;69.95;100725.33;1960155;73;21104;-62
2022/04/24 04:10:40;;;;;;;28.27;12.45;;;;;;;11.64;70.03;100727.70;1960184;73;21139;-62
2022/04/24 04:13:09;;;;;;;25.43;11.93;;;;;;;11.83;69.71;100731.73;1960109;73;21029;-62
2022/04/24 04:15:38;;;;;;;38.70;13.65;;;;;;;11.86;69.41;100744.33;1960426;73;21463;-61
2022/04/24 04:18:07;;;;;;;25.00;8.90;;;;;;;11.91;69.08;100735.75;1960053;73;21005;-62
2022/04/24 04:20:36;;;;;;;28.83;10.58;;;;;;;11.98;68.85;100736.34;1960286;73;21017;-63
2022/04/24 04:23:05;;;;;;;39.00;16.40;;;;;;;12.06;68.71;100736.88;1960155;73;21028;-62
2022/04/24 04:25:34;;;;;;;41.42;20.70;;;;;;;12.21;68.57;100747.64;1960170;73;21044;-63
2022/04/24 04:28:03;;;;;;;39.67;19.27;;;;;;;12.49;68.55;100756.48;1960194;72;21068;-62
2022/04/24 04:30:32;;;;;;;32.40;14.68;;;;;;;12.69;68.48;100761.67;1959995;73;21165;-63
2022/04/24 04:33:01;;;;;;;9.95;5.10;;;;;;;12.85;68.31;100772.82;1960287;73;21528;-62
2022/04/24 04:35:30;;;;;;;8.48;4.30;;;;;;;12.94;68.12;100765.77;1960054;73;21052;-62
2022/04/24 04:37:58;;;;;;;11.10;4.30;;;;;;;13.00;67.90;100772.07;1960255;73;21032;-63
2022/04/24 04:40:27;;;;;;;6.55;3.77;;;;;;;13.02;67.67;100784.77;1960087;73;21036;-63
2022/04/24 04:42:55;;;;;;;11.30;5.20;;;;;;;13.11;67.55;100791.38;1960189;73;21028;-62
2022/04/24 04:45:29;;;;;;;9.85;4.62;;;;;;;13.21;67.47;100783.40;1943323;74;21046;-62
2022/04/24 04:47:54;;;;;;;9.83;4.10;;;;;;;13.63;67.78;100780.02;1925804;74;21046;-63
2022/04/24 04:50:23;;;;;;;12.10;4.37;;;;;;;13.87;67.81;100776.12;1926780;74;21063;-63
2022/04/24 04:52:52;;;;;;;9.68;4.22;;;;;;;14.07;67.83;100768.91;1926741;74;21171;-63
2022/04/24 04:55:20;;;;;;;9.55;4.30;;;;;;;14.40;67.82;100774.66;1926672;74;21121;-63
2022/04/24 04:57:50;;;;;;;8.40;3.85;;;;;;;14.79;67.84;100773.41;1926709;74;21093;-64
2022/04/24 05:00:19;;;;;;;8.30;3.87;;;;;;;15.21;67.64;100778.55;1926881;74;21469;-62
2022/04/24 05:02:48;;;;;;;8.88;3.55;;;;;;;15.64;67.38;100784.86;1926864;74;21014;-63
2022/04/24 05:05:17;;;;;;;9.28;4.35;;;;;;;16.38;67.20;100792.83;1926751;74;21015;-62
2022/04/24 05:07:46;;;;;;;7.37;3.87;;;;;;;17.02;66.76;100787.02;1926668;74;21536;-62
2022/04/24 05:10:14;;;;;;;6.50;4.00;;;;;;;17.36;66.14;100779.00;1926797;74;21101;-62
2022/04/24 05:12:43;;;;;;;7.62;4.50;;;;;;;17.39;65.59;100772.13;1926825;74;21022;-63
2022/04/24 05:15:14;;;;;;;9.50;4.33;;;;;;;17.69;64.95;100779.86;1926815;74;21176;-64
2022/04/24 05:17:44;;;;;;;9.70;4.35;;;;;;;18.10;64.41;100777.98;1926843;74;21159;-63
2022/04/24 05:20:13;;;;;;;10.85;3.60;;;;;;;18.48;63.99;100775.73;1926702;74;21490;-63
2022/04/24 05:22:43;;;;;;;10.65;4.42;;;;;;;18.73;63.45;100769.48;1926765;74;21548;-61
2022/04/24 05:25:14;;;;;;;5.40;2.90;;;;;;;18.60;62.52;100762.02;1926780;74;21489;-62
2022/04/24 05:27:42;;;;;;;7.83;4.17;;;;;;;18.10;61.14;100745.52;1927368;74;21180;-63
2022/04/24 05:30:11;;;;;;;13.45;4.25;;;;;;;17.59;60.39;100742.83;1932747;74;21015;-64
2022/04/24 05:32:46;;;;;;;15.70;4.28;;;;;;;17.24;60.33;100748.72;1932567;74;21538;-63
2022/04/24 05:35:13;;;;;;;13.72;4.87;;;;;;;16.79;59.67;100741.48;1932417;73;21078;-62
2022/04/24 05:37:45;;;;;;;10.23;4.30;;;;;;;16.27;58.62;100734.16;1932534;74;21098;-63
2022/04/24 05:40:14;;;;;;;20.97;4.95;;;;;;;15.86;58.67;100744.23;1932674;74;21245;-62
2022/04/24 05:42:53;;;;;;;7.65;4.92;;;;;;;15.70;59.02;100739.83;1932635;74;21182;-61
2022/04/24 05:45:22;;;;;;;9.10;3.87;;;;;;;15.68;59.34;100731.56;1930860;73;21492;-62
2022/04/24 05:47:50;;;;;;;5.87;3.40;;;;;;;15.53;59.35;100717.42;1932656;74;21042;-62
2022/04/24 05:50:19;;;;;;;6.95;4.17;;;;;;;15.31;59.61;100712.09;1932748;74;21542;-61
2022/04/24 05:52:48;;;;;;;12.95;4.10;;;;;;;15.20;59.96;100703.44;1932681;74;21042;-62
2022/04/24 05:55:38;;;;;;;12.63;4.42;;;;;;;15.46;60.14;100711.65;1893122;75;21209;-62
2022/04/24 05:58:06;;;;;;;5.80;2.62;;;;;;;16.07;60.28;100707.06;1893015;76;21116;-62
2022/04/24 06:00:36;;;;;;;11.75;4.22;;;;;;;16.91;60.24;100705.27;1893070;76;21080;-62
2022/04/24 06:03:05;;;;;;;10.72;4.97;;;;;;;17.80;59.77;100717.00;1893213;76;21051;-62
2022/04/24 06:05:33;;;;;;;15.25;4.60;;;;;;;18.79;59.16;100737.02;1893138;76;21114;-63
2022/04/24 06:08:02;;;;;;;9.75;4.33;;;;;;;19.59;59.00;100739.07;1893207;76;21089;-62
2022/04/24 06:10:31;;;;;;;13.85;4.53;;;;;;;19.92;58.11;100734.78;1893021;76;21019;-63
2022/04/24 06:13:00;;;;;;;12.35;4.35;;;;;;;19.87;57.54;100740.97;1893216;76;21095;-63
2022/04/24 06:15:29;;;;;;;9.43;5.40;;;;;;;19.76;57.26;100732.94;1893045;76;21054;-64
2022/04/24 06:17:59;;;;;;;12.07;5.40;;;;;;;19.78;57.11;100731.00;1892163;74;21530;-64
2022/04/24 06:20:29;;;;;;;12.13;4.28;;;;;;;19.67;56.76;100721.95;1956806;72;21018;-64
2022/04/24 06:23:01;;;;;;;11.40;4.22;;;;;;;19.40;56.37;100746.31;1976009;72;21497;-63
2022/04/24 06:25:35;;;;;;;13.45;4.40;;;;;;;19.19;56.42;100762.11;1977086;72;21091;-63
2022/04/24 06:28:04;;;;;;;12.33;4.67;;;;;;;19.02;56.45;100754.04;1897145;75;21466;-63
2022/04/24 06:30:40;;;;;;;10.72;4.83;;;;;;;18.89;56.45;100763.92;1893453;75;21572;-64
2022/04/24 06:33:11;;;;;;;10.85;4.85;;;;;;;18.88;56.46;100775.05;1900012;74;21089;-63
2022/04/24 06:35:41;;;;;;;8.68;4.53;;;;;;;18.87;56.44;100773.38;1897038;74;21461;-63
2022/04/24 06:38:10;;;;;;;6.15;3.35;;;;;;;18.87;56.44;100781.38;1926260;74;21464;-61
2022/04/24 06:40:39;;;;;;;8.05;3.90;;;;;;;18.78;56.53;100780.68;1880524;74;21051;-63
2022/04/24 06:43:09;;;;;;;8.10;4.37;;;;;;;18.68;56.47;100780.50;1959788;72;21143;-62
2022/04/24 06:45:41;;;;;;;15.53;7.47;;;;;;;18.62;56.36;100777.42;1945989;74;21139;-63
2022/04/24 06:48:12;;;;;;;11.75;4.85;;;;;;;18.79;56.41;100775.70;1962263;72;21205;-61
2022/04/24 06:50:43;;;;;;;15.00;6.83;;;;;;;19.20;56.29;100799.86;1931748;74;21429;-63
2022/04/24 06:53:20;;;;;;;19.37;7.92;;;;;;;20.24;56.16;100791.52;1963288;72;21010;-64
2022/04/24 06:55:50;;;;;;;22.73;6.85;;;;;;;21.30;55.27;100776.73;1961966;73;21562;-62
2022/04/24 06:58:20;;;;;;;9.83;6.00;;;;;;;22.41;54.40;100778.01;1919864;74;21064;-66
2022/04/24 07:00:49;;;;;;;10.13;5.83;;;;;;;23.28;53.33;100786.77;1919828;74;21567;-63
2022/04/24 07:03:26;;;;;;;16.02;6.97;;;;;;;23.51;52.72;100786.80;1920444;74;21459;-64
2022/04/24 07:05:54;;;;;;;14.85;4.15;;;;;;;23.65;52.02;100785.53;1901884;75;21176;-63
2022/04/24 07:08:24;;;;;;;19.80;9.88;;;;;;;23.35;51.59;100781.19;1900131;74;21056;-63
2022/04/24 07:10:56;;;;;;;12.43;6.15;;;;;;;22.77;51.54;100785.95;1901475;75;21043;-62
2022/04/24 07:13:24;;;;;;;8.30;3.40;;;;;;;22.08;51.51;100785.34;1902226;75;21500;-63
2022/04/24 07:15:53;;;;;;;8.83;4.33;;;;;;;21.49;51.68;100784.97;1902202;75;21046;-64
2022/04/24 07:18:23;;;;;;;42.58;20.95;;;;;;;21.10;51.84;100771.23;1902248;75;21161;-63
2022/04/24 07:20:54;;;;;;;6.22;3.87;;;;;;;20.76;52.01;100741.87;1902110;75;21061;-64
2022/04/24 07:23:22;;;;;;;8.40;4.10;;;;;;;20.32;51.84;100724.91;1901971;74;21186;-65
2022/04/24 07:25:51;;;;;;;6.92;3.10;;;;;;;20.10;52.08;100739.63;1898949;75;21098;-65
2022/04/24 07:28:19;;;;;;;4.22;2.35;;;;;;;20.39;52.12;100760.88;1897219;76;21051;-64
2022/04/24 07:30:48;;;;;;;4.33;2.87;;;;;;;21.28;51.80;100757.27;1890850;75;21040;-64
2022/04/24 07:33:17;;;;;;;24.43;11.43;;;;;;;21.57;51.60;100736.09;1891969;75;21036;-64
2022/04/24 07:35:45;;;;;;;5.60;3.05;;;;;;;22.10;50.65;100731.09;1879900;75;21040;-65
2022/04/24 07:38:14;;;;;;;6.58;3.60;;;;;;;23.19;49.56;100736.58;1892935;75;21082;-65
2022/04/24 07:40:43;;;;;;;3.45;2.37;;;;;;;23.49;48.88;100740.41;1882855;75;21524;-63
2022/04/24 07:43:13;;;;;;;3.72;2.00;;;;;;;23.11;48.09;100750.69;1886959;75;21024;-62
2022/04/24 07:45:48;;;;;;;4.97;2.45;;;;;;;22.78;48.51;100746.53;1890985;75;21528;-67
2022/04/24 07:48:18;;;;;;;3.90;2.42;;;;;;;22.55;48.38;100761.53;1896411;75;21110;-65
2022/04/24 07:50:52;;;;;;;4.22;2.55;;;;;;;22.10;48.87;100764.60;1890574;75;21170;-62
2022/04/24 07:53:22;;;;;;;5.75;2.58;;;;;;;21.89;49.07;100772.19;1886939;75;21004;-63
2022/04/24 07:55:51;;;;;;;5.45;2.75;;;;;;;22.01;49.05;100765.41;1881058;74;21518;-63
2022/04/24 07:58:20;;;;;;;5.28;2.47;;;;;;;22.40;48.64;100738.77;1891792;75;21522;-65
2022/04/24 08:00:49;;;;;;;4.70;2.95;;;;;;;23.42;47.98;100746.01;1888503;75;22131;-64
2022/04/24 08:03:22;;;;;;;5.58;2.98;;;;;;;24.51;46.87;100765.71;1888112;75;21165;-64
2022/04/24 08:05:50;;;;;;;7.83;3.30;;;;;;;25.09;45.26;100767.73;1886493;75;21036;-66
2022/04/24 08:08:21;;;;;;;8.33;4.25;;;;;;;25.19;45.32;100785.99;1888404;75;21245;-65
2022/04/24 08:10:56;;;;;;;4.80;2.90;;;;;;;25.36;44.71;100789.70;1888900;74;21461;-66
2022/04/24 08:13:25;;;;;;;6.55;2.65;;;;;;;25.85;42.98;100782.52;1888334;75;21032;-64
2022/04/24 08:15:56;;;;;;;2.33;2.12;;;;;;;26.42;43.03;100799.05;1882938;75;21478;-65
2022/04/24 08:18:24;;;;;;;2.52;1.80;;;;;;;27.05;41.73;100786.94;1891128;75;21181;-64
2022/04/24 08:20:53;;;;;;;3.08;2.10;;;;;;;27.40;41.76;100782.78;1896433;75;21255;-65
2022/04/24 08:23:23;;;;;;;3.80;1.98;;;;;;;27.85;41.12;100782.73;1895779;75;21126;-64
2022/04/24 08:25:52;;;;;;;2.90;1.90;;;;;;;28.03;40.80;100768.51;1882201;75;21457;-67
2022/04/24 08:28:21;;;;;;;2.70;1.80;;;;;;;27.85;40.96;100771.91;1888779;75;21466;-62
2022/04/24 08:30:50;;;;;;;2.92;1.82;;;;;;;27.54;41.51;100772.13;1894241;75;21040;-63
2022/04/24 08:33:19;;;;;;;5.80;2.00;;;;;;;27.26;41.87;100761.31;1884233;75;21178;-62
2022/04/24 08:35:48;;;;;;;2.87;2.00;;;;;;;27.06;41.71;100760.78;1885295;75;21008;-62
2022/04/24 08:38:17;;;;;;;2.00;1.80;;;;;;;26.35;40.76;100775.05;1893867;75;21436;-63
2022/04/24 08:40:47;;;;;;;2.10;1.80;;;;;;;26.29;41.39;100784.64;1887941;75;21099;-65
2022/04/24 08:43:16;;;;;;;3.52;2.00;;;;;;;27.13;40.94;100779.34;1894218;75;21079;-64
2022/04/24 08:45:47;;;;;;;3.25;1.95;;;;;;;27.77;40.22;100781.41;1892023;75;21182;-64
2022/04/24 08:48:16;;;;;;;3.33;1.60;;;;;;;27.48;38.99;100773.30;1898002;75;21098;-64
2022/04/24 08:50:45;;;;;;;4.35;2.17;;;;;;;27.26;39.06;100764.01;1891509;75;21110;-64
2022/04/24 08:53:15;;;;;;;3.85;1.82;;;;;;;26.68;38.63;100768.46;1902124;75;21032;-63
2022/04/24 08:55:43;;;;;;;2.12;1.55;;;;;;;27.25;38.18;100772.60;1902671;74;21111;-63
2022/04/24 08:58:12;;;;;;;3.08;1.75;;;;;;;27.87;37.16;100769.38;1905807;75;21082;-63
2022/04/24 09:00:43;;;;;;;1.90;1.40;;;;;;;28.41;36.56;100767.37;1905990;75;21477;-63
2022/04/24 09:03:11;;;;;;;4.10;1.70;;;;;;;29.01;36.36;100743.34;1930291;74;21031;-64
2022/04/24 09:05:40;;;;;;;3.25;1.57;;;;;;;29.80;35.94;100743.03;1928217;74;21099;-63
2022/04/24 09:08:14;;;;;;;3.45;1.40;;;;;;;30.33;35.38;100737.00;1888419;75;21007;-64
2022/04/24 09:10:51;;;;;;;2.65;1.40;;;;;;;30.70;34.98;100733.78;1912048;74;20995;-64
2022/04/24 09:13:32;;;;;;;3.87;1.55;;;;;;;30.32;35.35;100727.16;1910218;74;21104;-64
2022/04/24 09:16:02;;;;;;;2.95;1.40;;;;;;;30.49;35.20;100725.09;1906862;74;20998;-62
2022/04/24 09:18:41;;;;;;;4.35;1.65;;;;;;;30.61;34.40;100733.57;1907455;74;21066;-64
2022/04/24 09:21:13;;;;;;;3.10;1.15;;;;;;;30.66;33.75;100735.20;1873823;76;21546;-63
2022/04/24 09:23:42;;;;;;;1.30;1.12;;;;;;;30.81;33.24;100732.43;1887476;75;21037;-63
2022/04/24 09:26:16;;;;;;;2.87;1.30;;;;;;;31.02;33.00;100738.41;1905955;75;21492;-63
2022/04/24 09:28:45;;;;;;;1.50;1.05;;;;;;;31.14;32.69;100741.47;1910113;74;21069;-62
2022/04/24 09:31:13;;;;;;;3.05;1.10;;;;;;;31.11;31.46;100737.23;1913188;74;21030;-63
2022/04/24 09:33:43;;;;;;;1.37;0.98;;;;;;;31.02;31.27;100738.41;1909143;74;21008;-61
2022/04/24 09:36:14;;;;;;;2.10;1.30;;;;;;;30.99;31.41;100740.18;1924868;74;21506;-64
2022/04/24 09:38:47;;;;;;;2.08;1.12;;;;;;;31.22;30.97;100738.59;1906148;75;21030;-60
2022/04/24 09:41:18;;;;;;;2.90;1.50;;;;;;;31.28;30.93;100742.41;1905509;75;21187;-61
2022/04/24 09:43:48;;;;;;;1.32;0.82;;;;;;;31.41;30.78;100746.63;1906110;75;21081;-62
2022/04/24 09:46:30;;;;;;;1.20;0.80;;;;;;;31.36;29.80;100754.53;1913350;74;21122;-64
2022/04/24 09:49:02;;;;;;;2.27;1.10;;;;;;;31.25;29.06;100744.19;1931489;74;21108;-60
2022/04/24 09:51:32;;;;;;;4.10;0.85;;;;;;;31.16;28.60;100752.98;1931446;74;21096;-61
2022/04/24 09:54:01;;;;;;;14.93;1.30;;;;;;;31.15;28.12;100749.44;1931163;74;21034;-61
2022/04/24 09:56:31;;;;;;;0.80;0.80;;;;;;;31.18;27.58;100748.19;1925089;74;21047;-63
2022/04/24 09:59:01;;;;;;;1.55;1.10;;;;;;;31.17;27.47;100754.16;1902285;75;21156;-63
2022/04/24 10:01:30;;;;;;;0.82;0.70;;;;;;;31.14;26.89;100767.30;1902388;75;21456;-63
2022/04/24 10:03:58;;;;;;;2.95;0.90;;;;;;;31.29;26.49;100759.90;1902072;75;21074;-66
2022/04/24 10:06:27;;;;;;;2.75;1.32;;;;;;;31.34;26.41;100762.87;1902189;75;21035;-63
2022/04/24 10:08:56;;;;;;;1.30;0.80;;;;;;;31.27;26.16;100767.94;1902173;75;21106;-65
2022/04/24 10:11:29;;;;;;;0.82;0.80;;;;;;;31.33;25.88;100767.16;1902179;75;21063;-66
2022/04/24 10:14:07;;;;;;;1.70;1.20;;;;;;;31.32;25.19;100765.48;1902698;75;21067;-63
2022/04/24 10:16:48;;;;;;;1.13;0.80;;;;;;;31.41;24.75;100760.72;1902366;75;21578;-62
2022/04/24 10:19:19;;;;;;;3.62;0.82;;;;;;;31.28;25.06;100764.17;1901611;75;21512;-63
2022/04/24 10:21:59;;;;;;;1.62;0.82;;;;;;;31.36;24.85;100764.05;1901532;75;21034;-62
2022/04/24 10:24:31;;;;;;;2.58;0.98;;;;;;;31.23;24.59;100758.50;1905442;74;21038;-64
2022/04/24 10:27:01;;;;;;;2.10;0.88;;;;;;;31.19;24.36;100760.77;1903530;74;21074;-65
2022/04/24 10:29:30;;;;;;;0.90;0.70;;;;;;;31.15;23.93;100751.29;1905947;75;21089;-62
2022/04/24 10:31:59;;;;;;;0.90;0.68;;;;;;;31.11;24.42;100756.80;1906027;75;21030;-64
2022/04/24 10:34:29;;;;;;;1.60;0.70;;;;;;;30.91;24.10;100757.47;1906263;75;21054;-64
2022/04/24 10:36:59;;;;;;;1.27;0.70;;;;;;;30.65;23.09;100751.69;1905561;75;21022;-64
2022/04/24 10:39:30;;;;;;;1.22;0.80;;;;;;;30.46;23.67;100754.51;1905877;75;21533;-65
2022/04/24 10:42:00;;;;;;;0.98;0.85;;;;;;;30.36;24.21;100754.29;1905961;75;21007;-64
2022/04/24 10:44:29;;;;;;;1.82;1.30;;;;;;;30.34;24.43;100759.56;1906036;75;21127;-62
2022/04/24 10:46:59;;;;;;;1.72;1.00;;;;;;;29.93;24.75;100761.38;1905937;75;21044;-62
2022/04/24 10:49:30;;;;;;;4.12;1.50;;;;;;;29.91;25.17;100757.49;1906042;75;21473;-63
2022/04/24 10:52:03;;;;;;;2.17;1.30;;;;;;;29.91;25.16;100764.28;1905392;74;21149;-63
2022/04/24 10:54:39;;;;;;;1.45;1.20;;;;;;;29.76;25.23;100764.79;1906051;75;21043;-63
2022/04/24 10:57:26;;;;;;;1.27;1.07;;;;;;;29.71;25.75;100759.04;1905296;75;21066;-65
2022/04/24 10:59:55;;;;;;;4.67;1.75;;;;;;;29.62;25.74;100759.63;1902844;75;21473;-62
2022/04/24 11:02:34;;;;;;;4.30;1.30;;;;;;;29.53;26.07;100758.87;1902653;75;21558;-64
2022/04/24 11:05:13;;;;;;;3.42;1.30;;;;;;;29.45;26.32;100765.72;1901576;75;21026;-61
2022/04/24 11:07:39;;;;;;;1.35;1.12;;;;;;;29.21;26.46;100759.47;1901880;74;21047;-62
2022/04/24 11:10:11;;;;;;;1.82;1.22;;;;;;;28.80;25.62;100750.25;1902875;75;21481;-60
2022/04/24 11:12:41;;;;;;;2.92;1.07;;;;;;;28.53;26.15;100757.53;1902731;75;21046;-63
2022/04/24 11:15:14;;;;;;;1.77;0.95;;;;;;;28.20;25.70;100752.22;1902762;75;21139;-61
2022/04/24 11:17:43;;;;;;;1.98;1.00;;;;;;;27.95;26.04;100752.83;1902741;75;21070;-64
2022/04/24 11:20:14;;;;;;;1.92;1.17;;;;;;;27.70;25.75;100753.70;1902744;75;21074;-64
2022/04/24 11:22:51;;;;;;;0.95;0.70;;;;;;;27.45;24.61;100743.41;1903290;75;21019;-61
2022/04/24 11:25:23;;;;;;;1.15;0.80;;;;;;;27.11;21.30;100747.59;1904442;75;21472;-63
2022/04/24 11:27:53;;;;;;;1.32;0.72;;;;;;;26.86;20.49;100754.32;1904962;75;21014;-62
2022/04/24 11:30:31;;;;;;;1.37;0.72;;;;;;;26.67;19.08;100757.30;1905062;75;21015;-62
2022/04/24 11:33:06;;;;;;;0.65;0.60;;;;;;;26.51;21.07;100753.52;1904742;75;21144;-63
2022/04/24 11:35:38;;;;;;;1.70;0.60;;;;;;;26.49;20.89;100750.66;1904916;75;21038;-64